createdAt,value
2019-04-06T00:03:07.801Z,8.78
2019-04-06T00:05:35.013Z,8.75
2019-04-06T00:08:02.271Z,8.77
2019-04-06T00:10:29.204Z,8.79
2019-04-06T00:12:56.268Z,8.83
2019-04-06T00:15:23.447Z,8.93
2019-04-06T00:17:50.337Z,8.94
2019-04-06T00:20:17.115Z,8.97
2019-04-06T00:22:44.139Z,9.04
2019-04-06T00:25:11.171Z,9.05
2019-04-06T00:27:38.282Z,9.09
2019-04-06T00:33:05.946Z,9.09
2019-04-06T00:35:33.116Z,9.12
2019-04-06T00:38:00.682Z,9.17
2019-04-06T00:40:28.201Z,9.22
2019-04-06T00:42:55.290Z,9.36
2019-04-06T00:45:22.393Z,9.30
2019-04-06T00:47:49.549Z,9.28
2019-04-06T00:50:16.703Z,9.25
2019-04-06T00:52:43.861Z,9.27
2019-04-06T00:55:11.249Z,9.28
2019-04-06T00:57:38.347Z,9.29
2019-04-06T01:00:05.795Z,9.27
2019-04-06T01:02:33.012Z,9.30
2019-04-06T01:05:00.107Z,9.31
2019-04-06T01:07:27.537Z,9.32
2019-04-06T01:09:54.697Z,9.34
2019-04-06T01:12:21.876Z,9.34
2019-04-06T01:14:49.407Z,9.39
2019-04-06T01:17:16.554Z,9.46
2019-04-06T01:19:43.701Z,9.59
2019-04-06T01:22:10.806Z,9.52
2019-04-06T01:24:37.962Z,9.49
2019-04-06T01:27:05.073Z,9.45
2019-04-06T01:29:32.496Z,9.45
2019-04-06T01:32:00.012Z,9.34
2019-04-06T01:34:27.479Z,9.24
2019-04-06T01:36:54.640Z,9.14
2019-04-06T01:39:21.836Z,9.02
2019-04-06T01:41:48.933Z,8.92
2019-04-06T01:44:16.015Z,8.82
2019-04-06T01:46:43.185Z,8.74
2019-04-06T01:49:10.252Z,8.63
2019-04-06T01:51:37.364Z,8.59
2019-04-06T01:54:04.538Z,8.47
2019-04-06T01:56:31.613Z,8.39
2019-04-06T01:58:58.720Z,8.30
2019-04-06T02:01:45.465Z,8.21
2019-04-06T02:04:12.315Z,8.15
2019-04-06T02:06:39.098Z,8.11
2019-04-06T02:09:06.293Z,8.08
2019-04-06T02:11:33.099Z,8.06
2019-04-06T02:13:59.956Z,7.99
2019-04-06T02:16:27.150Z,7.94
2019-04-06T02:18:54.341Z,7.85
2019-04-06T02:21:21.477Z,7.80
2019-04-06T02:23:48.601Z,7.74
2019-04-06T02:26:15.627Z,7.72
2019-04-06T02:28:42.641Z,7.68
2019-04-06T02:31:15.558Z,7.63
2019-04-06T02:36:54.991Z,7.55
2019-04-06T02:39:41.660Z,7.48
2019-04-06T02:42:29.094Z,7.43
2019-04-06T02:44:56.413Z,7.40
2019-04-06T02:47:23.251Z,7.32
2019-04-06T02:49:50.743Z,7.36
2019-04-06T02:52:17.497Z,7.35
2019-04-06T02:54:44.247Z,7.34
2019-04-06T02:57:11.405Z,7.32
2019-04-06T02:59:38.567Z,7.29
2019-04-06T03:02:05.422Z,7.25
2019-04-06T03:04:32.959Z,7.21
2019-04-06T03:07:19.327Z,7.18
2019-04-06T03:09:46.211Z,7.18
2019-04-06T03:12:13.374Z,7.10
2019-04-06T03:14:40.254Z,7.08
2019-04-06T03:17:07.227Z,7.07
2019-04-06T03:19:33.987Z,7.07
2019-04-06T03:22:00.750Z,7.11
2019-04-06T03:24:27.787Z,7.08
2019-04-06T03:27:02.052Z,7.06
2019-04-06T03:29:23.337Z,7.04
2019-04-06T03:31:50.187Z,7.02
2019-04-06T03:34:21.599Z,7.02
2019-04-06T03:36:45.711Z,6.99
2019-04-06T03:39:12.730Z,6.98
2019-04-06T03:41:53.126Z,6.96
2019-04-06T03:44:20.997Z,6.96
2019-04-06T03:46:48.098Z,7.02
2019-04-06T03:49:15.164Z,7.05
2019-04-06T03:51:42.326Z,7.03
2019-04-06T03:54:09.409Z,7.05
2019-04-06T03:56:36.491Z,7.04
2019-04-06T03:59:03.627Z,7.09
2019-04-06T04:01:31.068Z,7.12
2019-04-06T04:03:58.155Z,7.26
2019-04-06T04:06:25.981Z,7.32
2019-04-06T04:08:53.469Z,7.39
2019-04-06T04:11:20.863Z,7.45
2019-04-06T04:13:48.094Z,7.52
2019-04-06T04:16:15.270Z,7.59
2019-04-06T04:18:42.682Z,7.67
2019-04-06T04:21:09.885Z,7.76
2019-04-06T04:23:37.169Z,7.71
2019-04-06T04:26:04.295Z,7.80
2019-04-06T04:28:31.445Z,7.84
2019-04-06T04:30:58.623Z,7.88
2019-04-06T04:33:25.751Z,7.87
2019-04-06T04:35:53.051Z,8.01
2019-04-06T04:38:20.154Z,8.13
2019-04-06T04:40:47.264Z,8.19
2019-04-06T04:43:14.586Z,8.13
2019-04-06T04:46:01.100Z,7.85
2019-04-06T04:48:28.314Z,7.98
2019-04-06T04:50:55.780Z,8.04
2019-04-06T04:53:23.259Z,8.17
2019-04-06T04:55:50.992Z,8.07
2019-04-06T04:58:18.354Z,8.21
2019-04-06T05:00:45.499Z,8.17
2019-04-06T05:03:12.762Z,8.11
2019-04-06T05:05:39.867Z,8.14
2019-04-06T05:08:07.195Z,8.16
2019-04-06T05:10:34.599Z,8.12
2019-04-06T05:13:01.711Z,8.17
2019-04-06T05:15:53.979Z,8.53
2019-04-06T05:18:21.077Z,8.54
2019-04-06T05:20:50.603Z,8.59
2019-04-06T05:23:17.754Z,8.86
2019-04-06T05:25:44.865Z,8.95
2019-04-06T05:28:12.339Z,9.01
2019-04-06T05:30:39.798Z,9.10
2019-04-06T05:33:07.166Z,9.13
2019-04-06T05:35:34.534Z,9.27
2019-04-06T05:38:02.016Z,9.44
2019-04-06T05:40:30.182Z,9.57
2019-04-06T05:42:57.397Z,9.68
2019-04-06T05:45:38.706Z,9.79
2019-04-06T05:48:06.299Z,9.81
2019-04-06T05:50:33.396Z,9.94
2019-04-06T05:53:01.443Z,10.06
2019-04-06T05:55:28.561Z,10.14
2019-04-06T05:58:03.473Z,10.24
2019-04-06T06:00:25.529Z,10.44
2019-04-06T06:02:54.009Z,10.46
2019-04-06T06:05:23.004Z,10.56
2019-04-06T06:07:51.734Z,10.59
2019-04-06T06:10:18.889Z,10.75
2019-04-06T06:12:46.025Z,10.70
2019-04-06T06:15:56.546Z,10.81
2019-04-06T06:18:27.639Z,10.88
2019-04-06T06:20:54.843Z,11.01
2019-04-06T06:23:22.792Z,11.07
2019-04-06T06:25:51.489Z,11.19
2019-04-06T06:28:18.908Z,11.26
2019-04-06T06:30:46.530Z,11.31
2019-04-06T06:33:14.022Z,11.43
2019-04-06T06:35:41.960Z,11.58
2019-04-06T06:38:09.123Z,11.68
2019-04-06T06:40:36.234Z,11.59
2019-04-06T06:43:24.587Z,11.61
2019-04-06T06:45:51.894Z,11.76
2019-04-06T06:48:19.123Z,11.99
2019-04-06T06:50:46.346Z,12.12
2019-04-06T06:53:13.534Z,12.21
2019-04-06T06:55:41.365Z,12.23
2019-04-06T06:58:08.531Z,12.35
2019-04-06T07:00:57.624Z,12.29
2019-04-06T07:03:24.806Z,12.42
2019-04-06T07:05:51.925Z,12.48
2019-04-06T07:08:19.006Z,12.85
2019-04-06T07:10:46.546Z,12.97
2019-04-06T07:13:13.637Z,12.88
2019-04-06T07:15:43.126Z,12.76
2019-04-06T07:18:09.837Z,12.81
2019-04-06T07:20:56.820Z,13.00
2019-04-06T07:23:23.779Z,13.31
2019-04-06T07:25:57.735Z,13.47
2019-04-06T07:28:19.172Z,13.60
2019-04-06T07:30:45.868Z,13.76
2019-04-06T07:33:12.608Z,13.90
2019-04-06T07:35:39.354Z,14.02
2019-04-06T07:38:06.366Z,13.98
2019-04-06T07:40:33.076Z,14.15
2019-04-06T07:43:19.978Z,14.51
2019-04-06T07:45:47.061Z,14.21
2019-04-06T07:48:26.628Z,14.55
2019-04-06T07:50:53.881Z,14.67
2019-04-06T07:53:20.526Z,15.11
2019-04-06T07:55:47.366Z,15.31
2019-04-06T07:58:14.175Z,15.44
2019-04-06T08:00:40.913Z,15.59
2019-04-06T08:03:07.868Z,15.75
2019-04-06T08:05:34.903Z,15.80
2019-04-06T08:08:01.531Z,15.87
2019-04-06T08:10:28.468Z,16.04
2019-04-06T08:12:55.314Z,16.21
2019-04-06T08:15:22.321Z,16.21
2019-04-06T08:17:49.121Z,16.66
2019-04-06T08:20:16.058Z,16.54
2019-04-06T08:22:43.506Z,17.19
2019-04-06T08:25:12.583Z,17.15
2019-04-06T08:27:39.323Z,17.10
2019-04-06T08:30:07.354Z,17.27
2019-04-06T08:32:34.711Z,17.08
2019-04-06T08:35:01.879Z,17.57
2019-04-06T08:37:28.840Z,17.73
2019-04-06T08:39:55.675Z,17.94
2019-04-06T08:42:41.963Z,17.37
2019-04-06T08:45:08.906Z,17.88
2019-04-06T08:47:36.209Z,17.55
2019-04-06T08:50:44.759Z,17.86
2019-04-06T08:53:11.968Z,18.03
2019-04-06T08:55:38.892Z,17.83
2019-04-06T08:58:06.276Z,18.02
2019-04-06T09:00:33.548Z,18.40
2019-04-06T09:03:00.380Z,18.05
2019-04-06T09:05:27.621Z,18.55
2019-04-06T09:07:54.639Z,18.90
2019-04-06T09:10:21.423Z,19.23
2019-04-06T09:12:48.498Z,19.42
2019-04-06T09:15:16.592Z,19.51
2019-04-06T09:17:44.354Z,19.74
2019-04-06T09:20:11.427Z,19.14
2019-04-06T09:22:38.292Z,19.42
2019-04-06T09:25:05.424Z,19.30
2019-04-06T09:27:32.584Z,19.13
2019-04-06T09:29:59.641Z,19.46
2019-04-06T09:32:26.368Z,20.17
2019-04-06T09:34:53.182Z,20.40
2019-04-06T09:37:20.139Z,21.02
2019-04-06T09:39:46.917Z,21.18
2019-04-06T09:42:13.669Z,21.24
2019-04-06T09:45:00.268Z,20.35
2019-04-06T09:47:46.711Z,20.81
2019-04-06T09:50:33.167Z,20.32
2019-04-06T09:53:19.784Z,20.42
2019-04-06T09:55:53.848Z,20.81
2019-04-06T09:58:40.620Z,20.81
2019-04-06T10:01:37.353Z,20.96
2019-04-06T10:04:15.722Z,21.80
2019-04-06T10:07:00.936Z,21.17
2019-04-06T10:09:48.382Z,21.49
2019-04-06T10:12:35.377Z,21.28
2019-04-06T10:15:22.519Z,20.62
2019-04-06T10:18:10.646Z,21.17
2019-04-06T10:20:57.613Z,21.87
2019-04-06T10:23:44.467Z,21.28
2019-04-06T10:26:31.642Z,21.17
2019-04-06T10:29:18.304Z,21.91
2019-04-06T10:32:05.080Z,22.42
2019-04-06T10:34:51.781Z,21.47
2019-04-06T10:37:38.440Z,22.14
2019-04-06T10:40:25.728Z,22.05
2019-04-06T10:43:12.178Z,22.10
2019-04-06T10:45:59.116Z,21.53
2019-04-06T10:48:45.741Z,22.16
2019-04-06T10:51:32.390Z,22.06
2019-04-06T10:54:18.851Z,21.70
2019-04-06T10:57:05.730Z,21.76
2019-04-06T11:00:00.609Z,22.26
2019-04-06T11:02:41.290Z,22.37
2019-04-06T11:05:15.062Z,22.41
2019-04-06T11:08:01.666Z,23.01
2019-04-06T11:10:48.412Z,22.21
2019-04-06T11:13:35.197Z,22.34
2019-04-06T11:16:22.141Z,22.37
2019-04-06T11:19:11.186Z,22.32
2019-04-06T11:21:58.363Z,22.48
2019-04-06T11:24:45.399Z,22.91
2019-04-06T11:27:31.824Z,23.28
2019-04-06T11:30:18.569Z,22.60
2019-04-06T11:33:06.106Z,22.82
2019-04-06T11:35:52.884Z,22.34
2019-04-06T11:38:39.424Z,22.52
2019-04-06T11:41:25.776Z,22.50
2019-04-06T11:44:10.031Z,23.04
2019-04-06T11:46:44.637Z,22.63
2019-04-06T11:49:31.645Z,22.60
2019-04-06T11:52:18.377Z,22.38
2019-04-06T11:55:20.957Z,22.38
2019-04-06T11:58:07.607Z,22.13
2019-04-06T12:00:54.386Z,22.21
2019-04-06T12:03:41.025Z,22.04
2019-04-06T12:06:27.873Z,22.02
2019-04-06T12:09:01.450Z,21.97
2019-04-06T12:11:48.303Z,21.73
2019-04-06T12:14:36.677Z,21.65
2019-04-06T12:17:11.608Z,21.81
2019-04-06T12:19:57.962Z,21.85
2019-04-06T12:22:44.616Z,22.03
2019-04-06T12:25:31.013Z,22.03
2019-04-06T12:28:17.802Z,21.88
2019-04-06T12:31:04.288Z,21.74
2019-04-06T12:33:51.116Z,21.80
2019-04-06T12:36:37.489Z,22.04
2019-04-06T12:39:26.115Z,21.96
2019-04-06T12:42:14.060Z,21.89
2019-04-06T12:45:00.798Z,21.79
2019-04-06T12:47:47.298Z,21.70
2019-04-06T12:50:21.758Z,21.95
2019-04-06T12:53:08.396Z,21.99
2019-04-06T12:55:55.512Z,22.24
2019-04-06T12:58:41.878Z,22.25
2019-04-06T13:01:28.312Z,21.84
2019-04-06T13:04:14.841Z,21.84
2019-04-06T13:07:01.549Z,22.05
2019-04-06T13:09:47.941Z,22.02
2019-04-06T13:12:34.485Z,22.10
2019-04-06T13:15:20.814Z,22.30
2019-04-06T13:18:07.232Z,22.02
2019-04-06T13:20:53.874Z,21.89
2019-04-06T13:23:27.292Z,21.74
2019-04-06T13:26:13.633Z,21.68
2019-04-06T13:29:00.459Z,21.83
2019-04-06T13:31:44.919Z,21.94
2019-04-06T13:34:31.509Z,22.03
2019-04-06T13:37:18.529Z,21.95
2019-04-06T13:40:04.859Z,22.01
2019-04-06T13:42:51.654Z,22.02
2019-04-06T13:45:38.301Z,22.06
2019-04-06T13:48:25.538Z,21.78
2019-04-06T13:51:12.287Z,22.03
2019-04-06T13:53:48.009Z,21.83
2019-04-06T13:56:34.395Z,21.95
2019-04-06T13:59:20.735Z,21.96
2019-04-06T14:02:07.723Z,21.96
2019-04-06T14:04:54.267Z,22.01
2019-04-06T14:07:40.602Z,21.69
2019-04-06T14:10:27.395Z,21.64
2019-04-06T14:13:14.401Z,21.53
2019-04-06T14:16:01.056Z,21.14
2019-04-06T14:18:49.347Z,21.14
2019-04-06T14:21:35.684Z,21.33
2019-04-06T14:24:16.726Z,21.55
2019-04-06T14:27:03.272Z,21.41
2019-04-06T14:29:49.568Z,21.21
2019-04-06T14:32:23.691Z,21.27
2019-04-06T14:35:10.622Z,21.46
2019-04-06T14:37:45.423Z,21.31
2019-04-06T14:40:39.369Z,21.42
2019-04-06T14:43:26.008Z,21.45
2019-04-06T14:46:12.442Z,21.41
2019-04-06T14:49:10.614Z,21.37
2019-04-06T14:51:47.148Z,21.38
2019-04-06T14:54:33.537Z,21.23
2019-04-06T14:57:20.356Z,21.22
2019-04-06T15:00:06.636Z,21.34
2019-04-06T15:02:52.964Z,21.24
2019-04-06T15:05:26.905Z,21.13
2019-04-06T15:08:13.610Z,21.14
2019-04-06T15:10:59.946Z,20.94
2019-04-06T15:13:46.379Z,21.13
2019-04-06T15:16:32.726Z,21.11
2019-04-06T15:19:06.832Z,21.08
2019-04-06T15:22:12.719Z,21.20
2019-04-06T15:24:59.018Z,20.93
2019-04-06T15:27:45.400Z,20.78
2019-04-06T15:30:53.262Z,20.86
2019-04-06T15:33:39.630Z,20.96
2019-04-06T15:36:26.412Z,20.97
2019-04-06T15:39:13.376Z,20.72
2019-04-06T15:41:59.701Z,20.70
2019-04-06T15:44:46.440Z,20.87
2019-04-06T15:47:25.376Z,20.47
2019-04-06T15:50:12.039Z,20.66
2019-04-06T15:53:00.218Z,20.49
2019-04-06T15:55:47.007Z,20.57
2019-04-06T15:58:19.416Z,20.57
2019-04-06T16:01:05.983Z,20.60
2019-04-06T16:03:52.302Z,20.26
2019-04-06T16:06:38.607Z,20.45
2019-04-06T16:09:25.402Z,20.35
2019-04-06T16:12:11.815Z,20.19
2019-04-06T16:14:46.376Z,19.96
2019-04-06T16:17:17.423Z,20.06
2019-04-06T16:20:03.740Z,20.11
2019-04-06T16:22:50.895Z,19.99
2019-04-06T16:25:37.506Z,19.83
2019-04-06T16:28:09.708Z,19.96
2019-04-06T16:30:56.425Z,19.64
2019-04-06T16:33:42.703Z,19.65
2019-04-06T16:36:29.336Z,19.66
2019-04-06T16:39:15.688Z,19.42
2019-04-06T16:42:02.289Z,19.36
2019-04-06T16:44:43.404Z,19.15
2019-04-06T16:47:31.201Z,19.09
2019-04-06T16:50:18.073Z,18.89
2019-04-06T16:52:55.584Z,18.93
2019-04-06T16:55:41.876Z,18.86
2019-04-06T16:58:28.328Z,18.83
2019-04-06T17:01:14.751Z,18.76
2019-04-06T17:04:02.313Z,18.67
2019-04-06T17:06:50.128Z,18.47
2019-04-06T17:09:36.440Z,18.44
2019-04-06T17:12:23.208Z,18.50
2019-04-06T17:15:09.823Z,18.26
2019-04-06T17:17:56.162Z,18.14
2019-04-06T17:20:43.011Z,18.02
2019-04-06T17:23:29.654Z,17.96
2019-04-06T17:26:16.484Z,17.95
2019-04-06T17:29:03.383Z,17.87
2019-04-06T17:32:09.476Z,17.72
2019-04-06T17:35:15.815Z,17.55
2019-04-06T17:38:02.860Z,17.32
2019-04-06T17:40:49.158Z,17.19
2019-04-06T17:43:35.620Z,17.06
2019-04-06T17:46:22.296Z,16.91
2019-04-06T17:49:08.635Z,16.77
2019-04-06T17:51:55.703Z,16.57
2019-04-06T17:54:42.374Z,16.56
2019-04-06T17:57:28.933Z,16.30
2019-04-06T18:00:06.243Z,16.17
2019-04-06T18:02:55.058Z,16.01
2019-04-06T18:05:41.856Z,15.92
2019-04-06T18:08:15.463Z,15.80
2019-04-06T18:11:03.167Z,15.65
2019-04-06T18:13:50.021Z,15.55
2019-04-06T18:16:58.301Z,15.45
2019-04-06T18:19:25.056Z,15.29
2019-04-06T18:21:51.980Z,15.18
2019-04-06T18:24:19.521Z,15.11
2019-04-06T18:26:47.686Z,15.03
2019-04-06T18:29:14.408Z,14.97
2019-04-06T18:32:01.424Z,14.88
2019-04-06T18:34:28.558Z,14.79
2019-04-06T18:37:15.226Z,14.68
2019-04-06T18:39:41.858Z,14.59
2019-04-06T18:42:28.169Z,14.52
2019-04-06T18:44:55.264Z,14.45
2019-04-06T18:47:22.108Z,14.36
2019-04-06T18:49:49.487Z,14.32
2019-04-06T18:52:16.686Z,14.28
2019-04-06T18:54:45.124Z,14.18
2019-04-06T18:57:12.729Z,14.19
2019-04-06T18:59:39.481Z,14.13
2019-04-06T19:02:06.244Z,14.06
2019-04-06T19:04:45.741Z,13.98
2019-04-06T19:07:12.389Z,13.98
2019-04-06T19:09:39.640Z,13.90
2019-04-06T19:12:07.909Z,13.90
2019-04-06T19:14:34.991Z,13.85
2019-04-06T19:17:01.850Z,13.81
2019-04-06T19:19:50.192Z,13.80
2019-04-06T19:22:17.327Z,13.76
2019-04-06T19:24:44.552Z,13.75
2019-04-06T19:27:11.284Z,13.77
2019-04-06T19:29:57.526Z,13.77
2019-04-06T19:32:25.009Z,13.73
2019-04-06T19:34:52.935Z,13.85
2019-04-06T19:37:19.814Z,13.87
2019-04-06T19:39:46.702Z,14.00
2019-04-06T19:42:13.982Z,14.01
2019-04-06T19:44:42.503Z,14.04
2019-04-06T19:47:10.874Z,14.06
2019-04-06T19:49:37.591Z,14.05
2019-04-06T19:52:04.398Z,14.07
2019-04-06T19:54:31.274Z,14.11
2019-04-06T19:56:57.932Z,14.17
2019-04-06T19:59:24.554Z,14.16
2019-04-06T20:01:51.400Z,14.29
2019-04-06T20:04:18.766Z,14.15
2019-04-06T20:06:45.562Z,14.12
2019-04-06T20:09:13.343Z,14.11
2019-04-06T20:11:40.122Z,14.20
2019-04-06T20:14:06.879Z,14.33
2019-04-06T20:16:34.063Z,14.24
2019-04-06T20:19:02.346Z,14.24
2019-04-06T20:21:29.647Z,14.30
2019-04-06T20:23:57.224Z,14.33
2019-04-06T20:26:25.750Z,14.34
2019-04-06T20:28:52.387Z,14.36
2019-04-06T20:31:19.614Z,14.44
2019-04-06T20:33:51.616Z,14.45
2019-04-06T20:36:16.336Z,14.29
2019-04-06T20:38:43.458Z,14.18
2019-04-06T20:41:12.051Z,14.20
2019-04-06T20:43:40.292Z,14.23
2019-04-06T20:46:07.369Z,14.32
2019-04-06T20:48:34.113Z,14.38
2019-04-06T20:51:00.834Z,14.34
2019-04-06T20:53:27.702Z,14.26
2019-04-06T20:56:14.531Z,14.13
2019-04-06T20:58:41.457Z,14.10
2019-04-06T21:01:08.178Z,14.05
2019-04-06T21:03:35.699Z,13.90
2019-04-06T21:06:02.931Z,13.92
2019-04-06T21:08:29.760Z,13.95
2019-04-06T21:10:56.784Z,13.84
2019-04-06T21:13:25.394Z,13.79
2019-04-06T21:15:52.396Z,13.86
2019-04-06T21:18:19.036Z,13.75
2019-04-06T21:20:46.390Z,13.78
2019-04-06T21:23:15.544Z,13.61
2019-04-06T21:25:43.133Z,13.62
2019-04-06T21:28:10.051Z,13.50
2019-04-06T21:30:36.990Z,13.42
2019-04-06T21:33:04.248Z,13.27
2019-04-06T21:35:54.833Z,13.16
2019-04-06T21:38:21.812Z,13.01
2019-04-06T21:40:50.527Z,12.92
2019-04-06T21:43:17.900Z,12.87
2019-04-06T21:45:44.661Z,12.74
2019-04-06T21:48:11.628Z,12.65
2019-04-06T21:50:38.747Z,12.59
2019-04-06T21:53:25.443Z,12.50
2019-04-06T21:56:02.144Z,12.44
2019-04-06T21:58:22.059Z,12.29
2019-04-06T22:03:29.286Z,12.15
2019-04-06T22:06:15.590Z,12.10
2019-04-06T22:08:43.040Z,12.01
2019-04-06T22:11:09.753Z,11.90
2019-04-06T22:13:36.790Z,11.87
2019-04-06T22:16:04.063Z,11.75
2019-04-06T22:18:31.167Z,11.72
2019-04-06T22:20:57.936Z,11.65
2019-04-06T22:23:25.634Z,11.61
2019-04-06T22:25:52.358Z,11.60
2019-04-06T22:28:19.258Z,11.59
2019-04-06T22:30:46.581Z,11.54
2019-04-06T22:33:13.301Z,11.50
2019-04-06T22:35:40.363Z,11.45
2019-04-06T22:38:07.211Z,11.44
2019-04-06T22:40:34.356Z,11.35
2019-04-06T22:43:01.759Z,11.37
2019-04-06T22:45:29.852Z,11.38
2019-04-06T22:47:58.657Z,11.31
2019-04-06T22:50:26.984Z,11.29
2019-04-06T22:52:54.183Z,11.27
2019-04-06T22:55:21.055Z,11.35
2019-04-06T22:57:47.806Z,11.25
2019-04-06T23:03:18.484Z,11.19
2019-04-06T23:05:48.525Z,11.10
2019-04-06T23:08:15.831Z,11.07
2019-04-06T23:10:43.086Z,11.04
2019-04-06T23:13:09.932Z,10.95
2019-04-06T23:15:56.444Z,10.91
2019-04-06T23:18:23.114Z,10.86
2019-04-06T23:20:51.181Z,10.80
2019-04-06T23:23:19.836Z,10.77
2019-04-06T23:26:07.758Z,10.70
2019-04-06T23:31:16.480Z,10.57
2019-04-06T23:33:45.005Z,10.47
2019-04-06T23:36:12.129Z,10.43
2019-04-06T23:38:39.519Z,10.36
2019-04-06T23:41:27.678Z,10.30
2019-04-06T23:43:56.343Z,10.21
2019-04-06T23:46:24.598Z,10.13
2019-04-06T23:48:52.065Z,10.05
2019-04-06T23:51:20.185Z,9.99
2019-04-06T23:53:48.043Z,9.93
2019-04-06T23:56:15.911Z,9.92
2019-04-06T23:58:43.138Z,9.86
